sensor_id;sensor_type;location;lat;lon;timestamp;P1;durP1;ratioP1;P2;durP2;ratioP2
74375;SDS011;62812;55.188;61.302;2024-03-08T00:02:05;8.85;;;4.72;;
74375;SDS011;62812;55.188;61.302;2024-03-08T00:04:32;5.85;;;3.72;;
74375;SDS011;62812;55.188;61.302;2024-03-08T00:06:59;7.43;;;4.30;;
74375;SDS011;62812;55.188;61.302;2024-03-08T00:09:26;7.45;;;4.82;;
74375;SDS011;62812;55.188;61.302;2024-03-08T00:11:53;9.75;;;4.72;;
74375;SDS011;62812;55.188;61.302;2024-03-08T00:14:19;9.63;;;5.10;;
74375;SDS011;62812;55.188;61.302;2024-03-08T00:16:46;9.48;;;5.35;;
74375;SDS011;62812;55.188;61.302;2024-03-08T00:19:12;6.72;;;4.15;;
74375;SDS011;62812;55.188;61.302;2024-03-08T00:21:41;7.65;;;4.47;;
74375;SDS011;62812;55.188;61.302;2024-03-08T00:24:08;5.97;;;3.85;;
74375;SDS011;62812;55.188;61.302;2024-03-08T00:26:34;7.18;;;3.90;;
74375;SDS011;62812;55.188;61.302;2024-03-08T00:29:00;10.75;;;4.97;;
74375;SDS011;62812;55.188;61.302;2024-03-08T00:31:27;8.82;;;5.00;;
74375;SDS011;62812;55.188;61.302;2024-03-08T00:33:53;10.30;;;4.35;;
74375;SDS011;62812;55.188;61.302;2024-03-08T00:36:20;12.57;;;4.05;;
74375;SDS011;62812;55.188;61.302;2024-03-08T00:38:48;7.43;;;2.38;;
74375;SDS011;62812;55.188;61.302;2024-03-08T00:41:14;5.55;;;1.92;;
74375;SDS011;62812;55.188;61.302;2024-03-08T00:43:41;15.07;;;3.00;;
74375;SDS011;62812;55.188;61.302;2024-03-08T00:46:07;5.63;;;3.03;;
74375;SDS011;62812;55.188;61.302;2024-03-08T00:48:34;7.20;;;3.25;;
74375;SDS011;62812;55.188;61.302;2024-03-08T00:51:03;8.32;;;2.97;;
74375;SDS011;62812;55.188;61.302;2024-03-08T00:53:30;9.60;;;4.43;;
74375;SDS011;62812;55.188;61.302;2024-03-08T00:55:58;12.20;;;4.43;;
74375;SDS011;62812;55.188;61.302;2024-03-08T00:58:24;12.45;;;4.15;;
74375;SDS011;62812;55.188;61.302;2024-03-08T01:00:51;7.35;;;3.72;;
74375;SDS011;62812;55.188;61.302;2024-03-08T01:03:17;8.77;;;5.75;;
74375;SDS011;62812;55.188;61.302;2024-03-08T01:05:44;6.65;;;3.25;;
74375;SDS011;62812;55.188;61.302;2024-03-08T01:08:11;5.45;;;3.30;;
74375;SDS011;62812;55.188;61.302;2024-03-08T01:10:38;12.68;;;4.15;;
74375;SDS011;62812;55.188;61.302;2024-03-08T01:13:06;11.45;;;3.38;;
74375;SDS011;62812;55.188;61.302;2024-03-08T01:15:32;6.80;;;2.17;;
74375;SDS011;62812;55.188;61.302;2024-03-08T01:17:59;5.88;;;1.90;;
74375;SDS011;62812;55.188;61.302;2024-03-08T01:20:27;9.35;;;2.85;;
74375;SDS011;62812;55.188;61.302;2024-03-08T01:22:53;8.55;;;3.08;;
74375;SDS011;62812;55.188;61.302;2024-03-08T01:25:20;7.68;;;3.80;;
74375;SDS011;62812;55.188;61.302;2024-03-08T01:27:46;10.80;;;5.10;;
74375;SDS011;62812;55.188;61.302;2024-03-08T01:30:14;8.93;;;3.10;;
74375;SDS011;62812;55.188;61.302;2024-03-08T01:32:43;8.82;;;4.05;;
74375;SDS011;62812;55.188;61.302;2024-03-08T01:35:09;9.60;;;4.25;;
74375;SDS011;62812;55.188;61.302;2024-03-08T01:37:36;20.17;;;4.47;;
74375;SDS011;62812;55.188;61.302;2024-03-08T01:40:02;6.93;;;4.10;;
74375;SDS011;62812;55.188;61.302;2024-03-08T01:42:29;13.18;;;5.38;;
74375;SDS011;62812;55.188;61.302;2024-03-08T01:44:56;12.20;;;4.72;;
74375;SDS011;62812;55.188;61.302;2024-03-08T01:47:24;11.93;;;4.43;;
74375;SDS011;62812;55.188;61.302;2024-03-08T01:49:51;12.40;;;5.30;;
74375;SDS011;62812;55.188;61.302;2024-03-08T01:52:18;11.55;;;5.78;;
74375;SDS011;62812;55.188;61.302;2024-03-08T01:54:46;14.80;;;5.57;;
74375;SDS011;62812;55.188;61.302;2024-03-08T01:57:13;6.20;;;4.32;;
74375;SDS011;62812;55.188;61.302;2024-03-08T01:59:41;14.82;;;5.97;;
74375;SDS011;62812;55.188;61.302;2024-03-08T02:02:09;10.52;;;7.18;;
74375;SDS011;62812;55.188;61.302;2024-03-08T02:04:42;11.05;;;6.88;;
74375;SDS011;62812;55.188;61.302;2024-03-08T02:07:08;10.20;;;7.38;;
74375;SDS011;62812;55.188;61.302;2024-03-08T02:09:35;18.10;;;8.88;;
74375;SDS011;62812;55.188;61.302;2024-03-08T02:12:01;16.38;;;8.95;;
74375;SDS011;62812;55.188;61.302;2024-03-08T02:14:28;31.75;;;10.57;;
74375;SDS011;62812;55.188;61.302;2024-03-08T02:16:59;11.05;;;7.22;;
74375;SDS011;62812;55.188;61.302;2024-03-08T02:19:26;14.23;;;7.88;;
74375;SDS011;62812;55.188;61.302;2024-03-08T02:21:54;15.02;;;4.20;;
74375;SDS011;62812;55.188;61.302;2024-03-08T02:24:22;9.60;;;3.28;;
74375;SDS011;62812;55.188;61.302;2024-03-08T02:26:50;8.70;;;3.42;;
74375;SDS011;62812;55.188;61.302;2024-03-08T02:29:16;6.47;;;3.53;;
74375;SDS011;62812;55.188;61.302;2024-03-08T02:31:43;12.93;;;3.63;;
74375;SDS011;62812;55.188;61.302;2024-03-08T02:34:10;15.00;;;4.13;;
74375;SDS011;62812;55.188;61.302;2024-03-08T02:36:37;7.75;;;4.25;;
74375;SDS011;62812;55.188;61.302;2024-03-08T02:39:05;9.10;;;5.15;;
74375;SDS011;62812;55.188;61.302;2024-03-08T02:41:32;8.35;;;5.03;;
74375;SDS011;62812;55.188;61.302;2024-03-08T02:43:58;9.20;;;4.20;;
74375;SDS011;62812;55.188;61.302;2024-03-08T02:46:25;11.02;;;5.13;;
74375;SDS011;62812;55.188;61.302;2024-03-08T02:48:51;8.90;;;4.72;;
74375;SDS011;62812;55.188;61.302;2024-03-08T02:51:18;8.75;;;4.47;;
74375;SDS011;62812;55.188;61.302;2024-03-08T02:53:45;9.20;;;5.97;;
74375;SDS011;62812;55.188;61.302;2024-03-08T02:56:15;12.20;;;6.28;;
74375;SDS011;62812;55.188;61.302;2024-03-08T02:58:42;13.25;;;4.97;;
74375;SDS011;62812;55.188;61.302;2024-03-08T03:01:09;10.15;;;5.20;;
74375;SDS011;62812;55.188;61.302;2024-03-08T03:03:38;12.50;;;4.78;;
74375;SDS011;62812;55.188;61.302;2024-03-08T03:06:04;25.27;;;5.10;;
74375;SDS011;62812;55.188;61.302;2024-03-08T03:08:32;10.27;;;4.80;;
74375;SDS011;62812;55.188;61.302;2024-03-08T03:10:59;7.60;;;3.85;;
74375;SDS011;62812;55.188;61.302;2024-03-08T03:13:27;7.85;;;3.72;;
74375;SDS011;62812;55.188;61.302;2024-03-08T03:15:55;8.07;;;4.75;;
74375;SDS011;62812;55.188;61.302;2024-03-08T03:18:24;6.20;;;3.45;;
74375;SDS011;62812;55.188;61.302;2024-03-08T03:20:52;13.00;;;5.05;;
74375;SDS011;62812;55.188;61.302;2024-03-08T03:23:19;8.82;;;3.83;;
74375;SDS011;62812;55.188;61.302;2024-03-08T03:25:46;7.43;;;4.80;;
74375;SDS011;62812;55.188;61.302;2024-03-08T03:28:13;6.75;;;3.30;;
74375;SDS011;62812;55.188;61.302;2024-03-08T03:30:45;11.10;;;4.07;;
74375;SDS011;62812;55.188;61.302;2024-03-08T03:33:12;10.10;;;4.22;;
74375;SDS011;62812;55.188;61.302;2024-03-08T03:35:40;7.30;;;3.03;;
74375;SDS011;62812;55.188;61.302;2024-03-08T03:38:08;7.95;;;3.78;;
74375;SDS011;62812;55.188;61.302;2024-03-08T03:40:35;11.13;;;3.25;;
74375;SDS011;62812;55.188;61.302;2024-03-08T03:43:02;12.27;;;4.05;;
74375;SDS011;62812;55.188;61.302;2024-03-08T03:45:29;9.10;;;3.50;;
74375;SDS011;62812;55.188;61.302;2024-03-08T03:48:00;11.95;;;3.63;;
74375;SDS011;62812;55.188;61.302;2024-03-08T03:50:28;11.20;;;2.47;;
74375;SDS011;62812;55.188;61.302;2024-03-08T03:52:55;11.52;;;2.88;;
74375;SDS011;62812;55.188;61.302;2024-03-08T03:55:21;14.40;;;2.78;;
74375;SDS011;62812;55.188;61.302;2024-03-08T03:57:48;7.15;;;2.95;;
74375;SDS011;62812;55.188;61.302;2024-03-08T04:00:14;8.63;;;2.35;;
74375;SDS011;62812;55.188;61.302;2024-03-08T04:02:42;9.18;;;3.13;;
74375;SDS011;62812;55.188;61.302;2024-03-08T04:05:10;15.73;;;3.03;;
74375;SDS011;62812;55.188;61.302;2024-03-08T04:07:37;10.93;;;3.55;;
74375;SDS011;62812;55.188;61.302;2024-03-08T04:10:04;10.88;;;4.07;;
74375;SDS011;62812;55.188;61.302;2024-03-08T04:12:33;10.15;;;3.42;;
74375;SDS011;62812;55.188;61.302;2024-03-08T04:14:59;15.50;;;4.53;;
74375;SDS011;62812;55.188;61.302;2024-03-08T04:17:25;12.93;;;3.75;;
74375;SDS011;62812;55.188;61.302;2024-03-08T04:19:53;8.77;;;3.47;;
74375;SDS011;62812;55.188;61.302;2024-03-08T04:22:21;16.58;;;2.83;;
74375;SDS011;62812;55.188;61.302;2024-03-08T04:24:48;27.35;;;3.75;;
74375;SDS011;62812;55.188;61.302;2024-03-08T04:27:15;12.30;;;3.58;;
74375;SDS011;62812;55.188;61.302;2024-03-08T04:29:41;10.30;;;2.95;;
74375;SDS011;62812;55.188;61.302;2024-03-08T04:32:08;11.18;;;2.92;;
74375;SDS011;62812;55.188;61.302;2024-03-08T04:34:35;9.77;;;3.20;;
74375;SDS011;62812;55.188;61.302;2024-03-08T04:37:02;13.15;;;3.63;;
74375;SDS011;62812;55.188;61.302;2024-03-08T04:39:31;19.02;;;3.40;;
74375;SDS011;62812;55.188;61.302;2024-03-08T04:41:58;12.90;;;3.45;;
74375;SDS011;62812;55.188;61.302;2024-03-08T04:44:26;9.10;;;3.47;;
74375;SDS011;62812;55.188;61.302;2024-03-08T04:46:52;13.27;;;2.67;;
74375;SDS011;62812;55.188;61.302;2024-03-08T04:49:19;10.93;;;4.00;;
74375;SDS011;62812;55.188;61.302;2024-03-08T04:51:47;13.02;;;3.33;;
74375;SDS011;62812;55.188;61.302;2024-03-08T04:54:14;16.67;;;3.45;;
74375;SDS011;62812;55.188;61.302;2024-03-08T04:56:42;11.48;;;3.70;;
74375;SDS011;62812;55.188;61.302;2024-03-08T04:59:09;11.23;;;4.43;;
74375;SDS011;62812;55.188;61.302;2024-03-08T05:01:35;10.50;;;3.45;;
74375;SDS011;62812;55.188;61.302;2024-03-08T05:04:05;7.60;;;2.40;;
74375;SDS011;62812;55.188;61.302;2024-03-08T05:06:31;11.48;;;3.30;;
74375;SDS011;62812;55.188;61.302;2024-03-08T05:08:59;8.73;;;2.78;;
74375;SDS011;62812;55.188;61.302;2024-03-08T05:11:26;23.00;;;6.10;;
74375;SDS011;62812;55.188;61.302;2024-03-08T05:13:54;19.02;;;4.50;;
74375;SDS011;62812;55.188;61.302;2024-03-08T05:16:21;15.18;;;3.72;;
74375;SDS011;62812;55.188;61.302;2024-03-08T05:18:48;14.88;;;4.15;;
74375;SDS011;62812;55.188;61.302;2024-03-08T05:21:17;23.35;;;4.05;;
74375;SDS011;62812;55.188;61.302;2024-03-08T05:23:46;15.80;;;3.83;;
74375;SDS011;62812;55.188;61.302;2024-03-08T05:26:12;22.58;;;4.68;;
74375;SDS011;62812;55.188;61.302;2024-03-08T05:28:40;18.35;;;4.97;;
74375;SDS011;62812;55.188;61.302;2024-03-08T05:31:08;17.50;;;4.30;;
74375;SDS011;62812;55.188;61.302;2024-03-08T05:33:35;11.02;;;3.50;;
74375;SDS011;62812;55.188;61.302;2024-03-08T05:36:01;11.40;;;3.50;;
74375;SDS011;62812;55.188;61.302;2024-03-08T05:38:28;17.92;;;4.45;;
74375;SDS011;62812;55.188;61.302;2024-03-08T05:40:55;10.85;;;3.42;;
74375;SDS011;62812;55.188;61.302;2024-03-08T05:43:22;15.13;;;3.70;;
74375;SDS011;62812;55.188;61.302;2024-03-08T05:45:48;12.55;;;3.67;;
74375;SDS011;62812;55.188;61.302;2024-03-08T05:48:16;13.48;;;3.03;;
74375;SDS011;62812;55.188;61.302;2024-03-08T05:50:45;14.52;;;3.15;;
74375;SDS011;62812;55.188;61.302;2024-03-08T05:53:12;23.60;;;4.15;;
74375;SDS011;62812;55.188;61.302;2024-03-08T05:55:38;13.60;;;3.38;;
74375;SDS011;62812;55.188;61.302;2024-03-08T05:58:06;9.82;;;3.55;;
74375;SDS011;62812;55.188;61.302;2024-03-08T06:00:36;11.90;;;3.30;;
74375;SDS011;62812;55.188;61.302;2024-03-08T06:03:04;18.77;;;4.28;;
74375;SDS011;62812;55.188;61.302;2024-03-08T06:05:34;11.63;;;3.47;;
74375;SDS011;62812;55.188;61.302;2024-03-08T06:08:01;15.25;;;3.25;;
74375;SDS011;62812;55.188;61.302;2024-03-08T06:10:27;10.00;;;2.53;;
74375;SDS011;62812;55.188;61.302;2024-03-08T06:12:53;12.23;;;3.30;;
74375;SDS011;62812;55.188;61.302;2024-03-08T06:15:20;18.58;;;3.72;;
74375;SDS011;62812;55.188;61.302;2024-03-08T06:17:49;12.75;;;3.75;;
74375;SDS011;62812;55.188;61.302;2024-03-08T06:20:18;12.60;;;4.00;;
74375;SDS011;62812;55.188;61.302;2024-03-08T06:22:46;14.00;;;3.60;;
74375;SDS011;62812;55.188;61.302;2024-03-08T06:25:13;16.40;;;4.82;;
74375;SDS011;62812;55.188;61.302;2024-03-08T06:27:41;20.67;;;4.75;;
74375;SDS011;62812;55.188;61.302;2024-03-08T06:30:14;17.52;;;3.63;;
74375;SDS011;62812;55.188;61.302;2024-03-08T06:32:41;14.25;;;4.60;;
74375;SDS011;62812;55.188;61.302;2024-03-08T06:35:08;20.00;;;4.38;;
74375;SDS011;62812;55.188;61.302;2024-03-08T06:37:36;16.30;;;3.80;;
74375;SDS011;62812;55.188;61.302;2024-03-08T06:40:05;15.40;;;4.03;;
74375;SDS011;62812;55.188;61.302;2024-03-08T06:42:34;18.75;;;3.80;;
74375;SDS011;62812;55.188;61.302;2024-03-08T06:45:00;9.43;;;3.83;;
74375;SDS011;62812;55.188;61.302;2024-03-08T06:47:30;18.38;;;4.80;;
74375;SDS011;62812;55.188;61.302;2024-03-08T06:49:57;19.08;;;4.10;;
74375;SDS011;62812;55.188;61.302;2024-03-08T06:52:26;17.85;;;4.22;;
74375;SDS011;62812;55.188;61.302;2024-03-08T06:54:52;15.60;;;4.07;;
74375;SDS011;62812;55.188;61.302;2024-03-08T06:57:22;8.85;;;3.65;;
74375;SDS011;62812;55.188;61.302;2024-03-08T07:13:15;13.48;;;3.83;;
74375;SDS011;62812;55.188;61.302;2024-03-08T07:15:52;13.05;;;3.45;;
74375;SDS011;62812;55.188;61.302;2024-03-08T07:18:18;15.13;;;3.28;;
74375;SDS011;62812;55.188;61.302;2024-03-08T07:25:06;11.18;;;3.05;;
74375;SDS011;62812;55.188;61.302;2024-03-08T07:27:51;7.10;;;2.70;;
74375;SDS011;62812;55.188;61.302;2024-03-08T07:30:22;9.20;;;2.50;;
74375;SDS011;62812;55.188;61.302;2024-03-08T07:33:14;10.77;;;2.30;;
74375;SDS011;62812;55.188;61.302;2024-03-08T07:35:43;11.00;;;2.13;;
74375;SDS011;62812;55.188;61.302;2024-03-08T07:38:13;13.38;;;3.05;;
74375;SDS011;62812;55.188;61.302;2024-03-08T07:41:02;9.05;;;2.80;;
74375;SDS011;62812;55.188;61.302;2024-03-08T07:43:46;5.80;;;1.70;;
74375;SDS011;62812;55.188;61.302;2024-03-08T07:46:31;9.88;;;2.38;;
74375;SDS011;62812;55.188;61.302;2024-03-08T07:51:28;8.05;;;2.20;;
74375;SDS011;62812;55.188;61.302;2024-03-08T07:53:54;7.53;;;1.83;;
74375;SDS011;62812;55.188;61.302;2024-03-08T07:56:23;14.48;;;2.63;;
74375;SDS011;62812;55.188;61.302;2024-03-08T07:58:51;7.57;;;2.20;;
74375;SDS011;62812;55.188;61.302;2024-03-08T08:01:19;5.28;;;2.10;;
74375;SDS011;62812;55.188;61.302;2024-03-08T08:03:51;6.18;;;1.95;;
74375;SDS011;62812;55.188;61.302;2024-03-08T08:06:25;7.65;;;1.38;;
74375;SDS011;62812;55.188;61.302;2024-03-08T08:09:00;6.68;;;2.65;;
74375;SDS011;62812;55.188;61.302;2024-03-08T08:11:27;5.93;;;1.23;;
74375;SDS011;62812;55.188;61.302;2024-03-08T08:14:02;8.00;;;1.48;;
74375;SDS011;62812;55.188;61.302;2024-03-08T08:16:34;4.35;;;1.48;;
74375;SDS011;62812;55.188;61.302;2024-03-08T08:19:05;4.68;;;1.50;;
74375;SDS011;62812;55.188;61.302;2024-03-08T08:21:38;3.63;;;1.30;;
74375;SDS011;62812;55.188;61.302;2024-03-08T08:27:33;5.68;;;1.30;;
74375;SDS011;62812;55.188;61.302;2024-03-08T08:30:35;6.65;;;1.48;;
74375;SDS011;62812;55.188;61.302;2024-03-08T08:33:33;6.28;;;1.60;;
74375;SDS011;62812;55.188;61.302;2024-03-08T08:47:39;3.97;;;1.55;;
74375;SDS011;62812;55.188;61.302;2024-03-08T08:53:31;3.40;;;0.95;;
74375;SDS011;62812;55.188;61.302;2024-03-08T08:59:04;4.93;;;1.50;;
74375;SDS011;62812;55.188;61.302;2024-03-08T09:02:02;4.55;;;1.20;;
74375;SDS011;62812;55.188;61.302;2024-03-08T09:05:05;5.47;;;1.10;;
74375;SDS011;62812;55.188;61.302;2024-03-08T09:08:09;4.53;;;0.95;;
74375;SDS011;62812;55.188;61.302;2024-03-08T09:11:04;5.10;;;1.30;;
74375;SDS011;62812;55.188;61.302;2024-03-08T09:13:56;4.45;;;1.00;;
74375;SDS011;62812;55.188;61.302;2024-03-08T09:16:32;3.95;;;1.25;;
74375;SDS011;62812;55.188;61.302;2024-03-08T09:22:23;5.70;;;1.25;;
74375;SDS011;62812;55.188;61.302;2024-03-08T09:30:45;4.20;;;1.00;;
74375;SDS011;62812;55.188;61.302;2024-03-08T09:37:45;5.25;;;1.17;;
74375;SDS011;62812;55.188;61.302;2024-03-08T09:40:30;8.10;;;1.40;;
74375;SDS011;62812;55.188;61.302;2024-03-08T09:43:12;3.22;;;1.08;;
74375;SDS011;62812;55.188;61.302;2024-03-08T09:45:57;3.38;;;1.08;;
74375;SDS011;62812;55.188;61.302;2024-03-08T09:49:06;6.38;;;1.58;;
74375;SDS011;62812;55.188;61.302;2024-03-08T09:51:53;5.55;;;1.52;;
74375;SDS011;62812;55.188;61.302;2024-03-08T09:54:22;5.25;;;1.80;;
74375;SDS011;62812;55.188;61.302;2024-03-08T09:56:52;4.75;;;1.20;;
74375;SDS011;62812;55.188;61.302;2024-03-08T09:59:19;5.75;;;1.17;;
74375;SDS011;62812;55.188;61.302;2024-03-08T10:01:48;7.15;;;1.67;;
74375;SDS011;62812;55.188;61.302;2024-03-08T10:04:15;4.80;;;1.52;;
74375;SDS011;62812;55.188;61.302;2024-03-08T10:06:44;5.78;;;1.63;;
74375;SDS011;62812;55.188;61.302;2024-03-08T10:12:42;5.13;;;1.88;;
74375;SDS011;62812;55.188;61.302;2024-03-08T10:15:15;5.85;;;1.60;;
74375;SDS011;62812;55.188;61.302;2024-03-08T10:17:57;13.13;;;2.90;;
74375;SDS011;62812;55.188;61.302;2024-03-08T10:20:24;5.55;;;1.70;;
74375;SDS011;62812;55.188;61.302;2024-03-08T10:22:55;6.65;;;1.58;;
74375;SDS011;62812;55.188;61.302;2024-03-08T10:25:30;5.68;;;1.70;;
74375;SDS011;62812;55.188;61.302;2024-03-08T10:27:59;5.15;;;1.60;;
74375;SDS011;62812;55.188;61.302;2024-03-08T10:33:23;9.00;;;1.80;;
74375;SDS011;62812;55.188;61.302;2024-03-08T10:35:52;11.48;;;2.03;;
74375;SDS011;62812;55.188;61.302;2024-03-08T10:38:24;5.05;;;1.60;;
74375;SDS011;62812;55.188;61.302;2024-03-08T10:40:58;6.47;;;1.70;;
74375;SDS011;62812;55.188;61.302;2024-03-08T10:43:28;5.85;;;1.63;;
74375;SDS011;62812;55.188;61.302;2024-03-08T10:46:46;7.63;;;1.90;;
74375;SDS011;62812;55.188;61.302;2024-03-08T10:49:12;5.43;;;1.50;;
74375;SDS011;62812;55.188;61.302;2024-03-08T10:51:46;5.80;;;1.80;;
74375;SDS011;62812;55.188;61.302;2024-03-08T10:54:17;3.75;;;1.60;;
74375;SDS011;62812;55.188;61.302;2024-03-08T10:56:46;5.43;;;1.92;;
74375;SDS011;62812;55.188;61.302;2024-03-08T10:59:17;7.55;;;1.73;;
74375;SDS011;62812;55.188;61.302;2024-03-08T11:01:49;6.47;;;2.28;;
74375;SDS011;62812;55.188;61.302;2024-03-08T11:04:23;7.82;;;2.30;;
74375;SDS011;62812;55.188;61.302;2024-03-08T11:06:59;7.00;;;2.53;;
74375;SDS011;62812;55.188;61.302;2024-03-08T11:09:32;7.50;;;1.83;;
74375;SDS011;62812;55.188;61.302;2024-03-08T11:12:21;4.32;;;1.50;;
74375;SDS011;62812;55.188;61.302;2024-03-08T11:14:52;5.95;;;1.73;;
74375;SDS011;62812;55.188;61.302;2024-03-08T11:17:26;5.43;;;1.70;;
74375;SDS011;62812;55.188;61.302;2024-03-08T11:20:08;4.97;;;1.35;;
74375;SDS011;62812;55.188;61.302;2024-03-08T11:22:41;6.65;;;1.77;;
74375;SDS011;62812;55.188;61.302;2024-03-08T11:28:07;4.85;;;1.60;;
74375;SDS011;62812;55.188;61.302;2024-03-08T11:31:22;3.08;;;0.98;;
74375;SDS011;62812;55.188;61.302;2024-03-08T11:33:54;6.80;;;1.60;;
74375;SDS011;62812;55.188;61.302;2024-03-08T11:36:22;6.10;;;2.13;;
74375;SDS011;62812;55.188;61.302;2024-03-08T11:38:53;4.80;;;1.73;;
74375;SDS011;62812;55.188;61.302;2024-03-08T11:41:23;4.88;;;1.80;;
74375;SDS011;62812;55.188;61.302;2024-03-08T11:44:01;4.63;;;1.80;;
74375;SDS011;62812;55.188;61.302;2024-03-08T11:46:33;5.38;;;1.63;;
74375;SDS011;62812;55.188;61.302;2024-03-08T11:49:00;5.90;;;1.80;;
74375;SDS011;62812;55.188;61.302;2024-03-08T11:51:29;4.00;;;1.63;;
74375;SDS011;62812;55.188;61.302;2024-03-08T11:53:58;5.78;;;1.80;;
74375;SDS011;62812;55.188;61.302;2024-03-08T11:56:27;4.13;;;1.30;;
74375;SDS011;62812;55.188;61.302;2024-03-08T11:58:55;6.97;;;1.65;;
74375;SDS011;62812;55.188;61.302;2024-03-08T12:01:32;6.38;;;1.60;;
74375;SDS011;62812;55.188;61.302;2024-03-08T12:03:59;5.93;;;2.17;;
74375;SDS011;62812;55.188;61.302;2024-03-08T12:06:27;6.35;;;2.10;;
74375;SDS011;62812;55.188;61.302;2024-03-08T12:09:07;9.13;;;1.85;;
74375;SDS011;62812;55.188;61.302;2024-03-08T12:11:35;6.88;;;2.30;;
74375;SDS011;62812;55.188;61.302;2024-03-08T12:14:05;8.32;;;2.05;;
74375;SDS011;62812;55.188;61.302;2024-03-08T12:16:38;4.65;;;1.40;;
74375;SDS011;62812;55.188;61.302;2024-03-08T12:19:05;5.63;;;1.63;;
74375;SDS011;62812;55.188;61.302;2024-03-08T12:21:34;4.97;;;1.85;;
74375;SDS011;62812;55.188;61.302;2024-03-08T12:24:03;7.63;;;2.05;;
74375;SDS011;62812;55.188;61.302;2024-03-08T12:26:31;5.10;;;1.88;;
74375;SDS011;62812;55.188;61.302;2024-03-08T12:31:47;6.85;;;1.95;;
74375;SDS011;62812;55.188;61.302;2024-03-08T12:34:16;5.95;;;2.40;;
74375;SDS011;62812;55.188;61.302;2024-03-08T12:36:44;7.53;;;2.25;;
74375;SDS011;62812;55.188;61.302;2024-03-08T12:39:16;7.20;;;2.45;;
74375;SDS011;62812;55.188;61.302;2024-03-08T12:41:57;6.80;;;2.50;;
74375;SDS011;62812;55.188;61.302;2024-03-08T12:47:45;10.50;;;3.17;;
74375;SDS011;62812;55.188;61.302;2024-03-08T12:50:15;8.43;;;3.17;;
74375;SDS011;62812;55.188;61.302;2024-03-08T12:52:46;6.68;;;2.25;;
74375;SDS011;62812;55.188;61.302;2024-03-08T12:55:18;12.23;;;3.53;;
74375;SDS011;62812;55.188;61.302;2024-03-08T12:57:46;8.02;;;3.05;;
74375;SDS011;62812;55.188;61.302;2024-03-08T13:00:15;7.93;;;2.42;;
74375;SDS011;62812;55.188;61.302;2024-03-08T13:02:47;6.45;;;2.53;;
74375;SDS011;62812;55.188;61.302;2024-03-08T13:05:19;11.73;;;2.45;;
74375;SDS011;62812;55.188;61.302;2024-03-08T13:07:53;11.65;;;2.95;;
74375;SDS011;62812;55.188;61.302;2024-03-08T13:10:30;9.02;;;3.30;;
74375;SDS011;62812;55.188;61.302;2024-03-08T13:12:56;6.90;;;2.92;;
74375;SDS011;62812;55.188;61.302;2024-03-08T13:15:23;14.55;;;5.82;;
74375;SDS011;62812;55.188;61.302;2024-03-08T13:17:51;9.80;;;2.70;;
74375;SDS011;62812;55.188;61.302;2024-03-08T13:20:39;13.45;;;6.60;;
74375;SDS011;62812;55.188;61.302;2024-03-08T13:23:24;9.90;;;3.90;;
74375;SDS011;62812;55.188;61.302;2024-03-08T13:25:52;12.18;;;3.85;;
74375;SDS011;62812;55.188;61.302;2024-03-08T13:28:26;9.85;;;4.28;;
74375;SDS011;62812;55.188;61.302;2024-03-08T13:31:05;28.27;;;12.00;;
74375;SDS011;62812;55.188;61.302;2024-03-08T13:33:44;10.35;;;3.70;;
74375;SDS011;62812;55.188;61.302;2024-03-08T13:36:13;9.20;;;3.70;;
74375;SDS011;62812;55.188;61.302;2024-03-08T13:39:17;13.00;;;5.10;;
74375;SDS011;62812;55.188;61.302;2024-03-08T13:41:59;15.00;;;5.70;;
74375;SDS011;62812;55.188;61.302;2024-03-08T13:44:43;9.65;;;2.53;;
74375;SDS011;62812;55.188;61.302;2024-03-08T13:47:10;16.13;;;4.40;;
74375;SDS011;62812;55.188;61.302;2024-03-08T13:49:39;8.57;;;2.85;;
74375;SDS011;62812;55.188;61.302;2024-03-08T13:52:06;11.38;;;3.13;;
74375;SDS011;62812;55.188;61.302;2024-03-08T13:54:34;7.38;;;2.20;;
74375;SDS011;62812;55.188;61.302;2024-03-08T13:57:01;9.32;;;2.25;;
74375;SDS011;62812;55.188;61.302;2024-03-08T13:59:30;9.32;;;2.78;;
74375;SDS011;62812;55.188;61.302;2024-03-08T14:01:59;22.25;;;8.82;;
74375;SDS011;62812;55.188;61.302;2024-03-08T14:04:31;8.23;;;2.38;;
74375;SDS011;62812;55.188;61.302;2024-03-08T14:11:45;8.82;;;2.53;;
74375;SDS011;62812;55.188;61.302;2024-03-08T14:14:13;10.25;;;2.63;;
74375;SDS011;62812;55.188;61.302;2024-03-08T14:16:40;12.65;;;3.00;;
74375;SDS011;62812;55.188;61.302;2024-03-08T14:19:06;11.05;;;2.58;;
74375;SDS011;62812;55.188;61.302;2024-03-08T14:21:35;9.40;;;3.45;;
74375;SDS011;62812;55.188;61.302;2024-03-08T14:24:05;8.10;;;2.97;;
74375;SDS011;62812;55.188;61.302;2024-03-08T14:29:46;13.10;;;3.83;;
74375;SDS011;62812;55.188;61.302;2024-03-08T14:32:19;13.10;;;3.58;;
74375;SDS011;62812;55.188;61.302;2024-03-08T14:35:08;12.43;;;3.55;;
74375;SDS011;62812;55.188;61.302;2024-03-08T14:37:41;22.85;;;4.00;;
74375;SDS011;62812;55.188;61.302;2024-03-08T14:40:13;21.80;;;4.95;;
74375;SDS011;62812;55.188;61.302;2024-03-08T14:42:49;17.35;;;4.00;;
74375;SDS011;62812;55.188;61.302;2024-03-08T15:18:49;19.52;;;4.32;;
74375;SDS011;62812;55.188;61.302;2024-03-08T15:22:01;17.42;;;4.05;;
74375;SDS011;62812;55.188;61.302;2024-03-08T15:24:46;22.35;;;4.82;;
74375;SDS011;62812;55.188;61.302;2024-03-08T15:28:12;21.95;;;4.75;;
74375;SDS011;62812;55.188;61.302;2024-03-08T15:32:09;28.83;;;5.25;;
74375;SDS011;62812;55.188;61.302;2024-03-08T15:35:16;15.23;;;4.05;;
74375;SDS011;62812;55.188;61.302;2024-03-08T15:37:46;17.50;;;5.57;;
74375;SDS011;62812;55.188;61.302;2024-03-08T15:40:22;19.88;;;5.70;;
74375;SDS011;62812;55.188;61.302;2024-03-08T15:42:58;14.95;;;4.53;;
74375;SDS011;62812;55.188;61.302;2024-03-08T15:45:48;17.20;;;4.82;;
74375;SDS011;62812;55.188;61.302;2024-03-08T15:48:30;18.40;;;5.00;;
74375;SDS011;62812;55.188;61.302;2024-03-08T15:51:16;16.10;;;5.13;;
74375;SDS011;62812;55.188;61.302;2024-03-08T15:54:08;16.83;;;4.13;;
74375;SDS011;62812;55.188;61.302;2024-03-08T16:00:06;12.95;;;5.10;;
74375;SDS011;62812;55.188;61.302;2024-03-08T16:02:44;18.33;;;6.20;;
74375;SDS011;62812;55.188;61.302;2024-03-08T16:05:21;12.00;;;4.18;;
74375;SDS011;62812;55.188;61.302;2024-03-08T16:08:15;14.15;;;5.10;;
74375;SDS011;62812;55.188;61.302;2024-03-08T16:10:49;14.20;;;5.20;;
74375;SDS011;62812;55.188;61.302;2024-03-08T16:13:20;15.32;;;4.82;;
74375;SDS011;62812;55.188;61.302;2024-03-08T16:15:48;17.83;;;5.50;;
74375;SDS011;62812;55.188;61.302;2024-03-08T16:18:16;17.52;;;5.35;;
74375;SDS011;62812;55.188;61.302;2024-03-08T16:24:55;13.15;;;4.72;;
74375;SDS011;62812;55.188;61.302;2024-03-08T16:27:23;18.73;;;5.55;;
74375;SDS011;62812;55.188;61.302;2024-03-08T16:29:49;12.90;;;5.05;;
74375;SDS011;62812;55.188;61.302;2024-03-08T16:32:17;17.77;;;4.43;;
74375;SDS011;62812;55.188;61.302;2024-03-08T16:34:46;19.17;;;5.32;;
74375;SDS011;62812;55.188;61.302;2024-03-08T16:37:14;20.17;;;5.53;;
74375;SDS011;62812;55.188;61.302;2024-03-08T16:39:42;13.57;;;4.85;;
74375;SDS011;62812;55.188;61.302;2024-03-08T16:42:10;20.80;;;4.25;;
74375;SDS011;62812;55.188;61.302;2024-03-08T16:44:36;17.30;;;4.90;;
74375;SDS011;62812;55.188;61.302;2024-03-08T16:47:12;24.10;;;5.50;;
74375;SDS011;62812;55.188;61.302;2024-03-08T16:49:41;25.40;;;5.82;;
74375;SDS011;62812;55.188;61.302;2024-03-08T16:52:09;18.77;;;6.63;;
74375;SDS011;62812;55.188;61.302;2024-03-08T16:54:36;19.25;;;5.35;;